sensor_id;sensor_type;location;lat;lon;timestamp;P1;durP1;ratioP1;P2;durP2;ratioP2
24787;SDS011;12883;52.662;5.196;2022-07-10T00:01:04;439.10;;;432.00;;
24787;SDS011;12883;52.662;5.196;2022-07-10T00:03:30;432.92;;;426.58;;
24787;SDS011;12883;52.662;5.196;2022-07-10T00:05:55;448.08;;;441.00;;
24787;SDS011;12883;52.662;5.196;2022-07-10T00:08:20;398.92;;;392.73;;
24787;SDS011;12883;52.662;5.196;2022-07-10T00:10:46;402.50;;;396.80;;
24787;SDS011;12883;52.662;5.196;2022-07-10T00:13:11;412.35;;;406.05;;
24787;SDS011;12883;52.662;5.196;2022-07-10T00:15:36;391.75;;;386.10;;
24787;SDS011;12883;52.662;5.196;2022-07-10T00:18:02;442.65;;;436.52;;
24787;SDS011;12883;52.662;5.196;2022-07-10T00:20:27;426.30;;;420.20;;
24787;SDS011;12883;52.662;5.196;2022-07-10T00:22:52;423.90;;;418.35;;
24787;SDS011;12883;52.662;5.196;2022-07-10T00:25:18;429.00;;;422.87;;
24787;SDS011;12883;52.662;5.196;2022-07-10T00:27:43;436.73;;;431.27;;
24787;SDS011;12883;52.662;5.196;2022-07-10T00:30:09;439.30;;;433.23;;
24787;SDS011;12883;52.662;5.196;2022-07-10T00:32:35;497.40;;;491.02;;
24787;SDS011;12883;52.662;5.196;2022-07-10T00:35:02;500.48;;;494.30;;
24787;SDS011;12883;52.662;5.196;2022-07-10T00:37:28;463.00;;;457.42;;
24787;SDS011;12883;52.662;5.196;2022-07-10T00:39:54;483.58;;;477.58;;
24787;SDS011;12883;52.662;5.196;2022-07-10T00:42:19;476.73;;;471.03;;
24787;SDS011;12883;52.662;5.196;2022-07-10T00:44:45;448.98;;;444.05;;
24787;SDS011;12883;52.662;5.196;2022-07-10T00:47:10;460.92;;;455.77;;
24787;SDS011;12883;52.662;5.196;2022-07-10T00:49:37;493.03;;;487.37;;
24787;SDS011;12883;52.662;5.196;2022-07-10T00:52:05;405.23;;;400.77;;
24787;SDS011;12883;52.662;5.196;2022-07-10T00:54:32;483.10;;;477.80;;
24787;SDS011;12883;52.662;5.196;2022-07-10T00:56:59;486.33;;;481.08;;
24787;SDS011;12883;52.662;5.196;2022-07-10T00:59:26;496.00;;;490.27;;
24787;SDS011;12883;52.662;5.196;2022-07-10T01:01:52;445.53;;;440.63;;
24787;SDS011;12883;52.662;5.196;2022-07-10T01:04:18;456.67;;;451.67;;
24787;SDS011;12883;52.662;5.196;2022-07-10T01:06:44;465.27;;;460.47;;
24787;SDS011;12883;52.662;5.196;2022-07-10T01:09:10;434.23;;;429.70;;
24787;SDS011;12883;52.662;5.196;2022-07-10T01:11:36;470.53;;;465.37;;
24787;SDS011;12883;52.662;5.196;2022-07-10T01:14:02;441.53;;;436.87;;
24787;SDS011;12883;52.662;5.196;2022-07-10T01:16:29;452.13;;;447.38;;
24787;SDS011;12883;52.662;5.196;2022-07-10T01:18:55;492.77;;;487.40;;
24787;SDS011;12883;52.662;5.196;2022-07-10T01:23:57;435.95;;;431.48;;
24787;SDS011;12883;52.662;5.196;2022-07-10T01:26:23;426.55;;;422.52;;
24787;SDS011;12883;52.662;5.196;2022-07-10T01:28:49;431.13;;;426.67;;
24787;SDS011;12883;52.662;5.196;2022-07-10T01:31:19;416.83;;;412.67;;
24787;SDS011;12883;52.662;5.196;2022-07-10T01:33:49;433.30;;;428.83;;
24787;SDS011;12883;52.662;5.196;2022-07-10T01:36:14;453.33;;;448.60;;
24787;SDS011;12883;52.662;5.196;2022-07-10T01:38:41;446.15;;;441.70;;
24787;SDS011;12883;52.662;5.196;2022-07-10T01:41:07;472.23;;;467.50;;
24787;SDS011;12883;52.662;5.196;2022-07-10T01:43:34;448.92;;;444.35;;
24787;SDS011;12883;52.662;5.196;2022-07-10T01:46:02;438.70;;;434.27;;
24787;SDS011;12883;52.662;5.196;2022-07-10T01:48:28;408.23;;;404.17;;
24787;SDS011;12883;52.662;5.196;2022-07-10T01:50:54;430.30;;;426.13;;
24787;SDS011;12883;52.662;5.196;2022-07-10T01:53:21;375.98;;;372.10;;
24787;SDS011;12883;52.662;5.196;2022-07-10T01:55:46;398.70;;;394.87;;
24787;SDS011;12883;52.662;5.196;2022-07-10T01:58:12;390.50;;;386.60;;
24787;SDS011;12883;52.662;5.196;2022-07-10T02:00:37;406.40;;;402.50;;
24787;SDS011;12883;52.662;5.196;2022-07-10T02:03:03;409.40;;;405.75;;
24787;SDS011;12883;52.662;5.196;2022-07-10T02:05:46;414.10;;;410.17;;
24787;SDS011;12883;52.662;5.196;2022-07-10T02:08:12;359.52;;;356.08;;
24787;SDS011;12883;52.662;5.196;2022-07-10T02:10:38;439.93;;;435.73;;
24787;SDS011;12883;52.662;5.196;2022-07-10T02:13:03;448.63;;;444.03;;
24787;SDS011;12883;52.662;5.196;2022-07-10T02:15:28;381.33;;;377.80;;
24787;SDS011;12883;52.662;5.196;2022-07-10T02:17:54;393.03;;;389.27;;
24787;SDS011;12883;52.662;5.196;2022-07-10T02:20:19;406.77;;;402.90;;
24787;SDS011;12883;52.662;5.196;2022-07-10T02:22:44;340.43;;;337.33;;
24787;SDS011;12883;52.662;5.196;2022-07-10T02:25:10;399.80;;;395.87;;
24787;SDS011;12883;52.662;5.196;2022-07-10T02:27:35;382.53;;;378.83;;
24787;SDS011;12883;52.662;5.196;2022-07-10T02:30:01;426.37;;;422.10;;
24787;SDS011;12883;52.662;5.196;2022-07-10T02:32:26;384.53;;;381.07;;
24787;SDS011;12883;52.662;5.196;2022-07-10T02:34:51;391.17;;;387.53;;
24787;SDS011;12883;52.662;5.196;2022-07-10T02:37:17;383.13;;;379.50;;
24787;SDS011;12883;52.662;5.196;2022-07-10T02:39:42;394.50;;;390.50;;
24787;SDS011;12883;52.662;5.196;2022-07-10T02:42:08;394.40;;;390.60;;
24787;SDS011;12883;52.662;5.196;2022-07-10T02:44:33;363.10;;;359.50;;
24787;SDS011;12883;52.662;5.196;2022-07-10T02:46:58;413.40;;;409.40;;
24787;SDS011;12883;52.662;5.196;2022-07-10T02:49:24;341.07;;;337.77;;
24787;SDS011;12883;52.662;5.196;2022-07-10T02:51:49;369.60;;;366.10;;
24787;SDS011;12883;52.662;5.196;2022-07-10T02:54:15;352.93;;;349.63;;
24787;SDS011;12883;52.662;5.196;2022-07-10T02:56:41;396.13;;;392.27;;
24787;SDS011;12883;52.662;5.196;2022-07-10T02:59:06;299.77;;;296.77;;
24787;SDS011;12883;52.662;5.196;2022-07-10T03:01:31;344.50;;;341.30;;
24787;SDS011;12883;52.662;5.196;2022-07-10T03:03:57;337.90;;;334.67;;
24787;SDS011;12883;52.662;5.196;2022-07-10T03:06:23;302.38;;;299.58;;
24787;SDS011;12883;52.662;5.196;2022-07-10T03:08:48;369.75;;;366.23;;
24787;SDS011;12883;52.662;5.196;2022-07-10T03:11:14;303.00;;;300.17;;
24787;SDS011;12883;52.662;5.196;2022-07-10T03:13:39;288.67;;;286.13;;
24787;SDS011;12883;52.662;5.196;2022-07-10T03:16:05;307.93;;;305.03;;
24787;SDS011;12883;52.662;5.196;2022-07-10T03:18:31;274.87;;;272.37;;
24787;SDS011;12883;52.662;5.196;2022-07-10T03:20:56;342.53;;;339.17;;
24787;SDS011;12883;52.662;5.196;2022-07-10T03:23:21;300.65;;;297.92;;
24787;SDS011;12883;52.662;5.196;2022-07-10T03:25:47;227.80;;;225.90;;
24787;SDS011;12883;52.662;5.196;2022-07-10T03:28:12;298.02;;;295.38;;
24787;SDS011;12883;52.662;5.196;2022-07-10T03:30:37;315.38;;;312.65;;
24787;SDS011;12883;52.662;5.196;2022-07-10T03:33:03;305.30;;;302.55;;
24787;SDS011;12883;52.662;5.196;2022-07-10T03:35:29;291.15;;;288.35;;
24787;SDS011;12883;52.662;5.196;2022-07-10T03:37:56;266.77;;;264.35;;
24787;SDS011;12883;52.662;5.196;2022-07-10T03:40:22;294.20;;;291.60;;
24787;SDS011;12883;52.662;5.196;2022-07-10T03:42:47;331.00;;;327.92;;
24787;SDS011;12883;52.662;5.196;2022-07-10T03:45:12;318.88;;;315.92;;
24787;SDS011;12883;52.662;5.196;2022-07-10T03:47:38;252.20;;;249.97;;
24787;SDS011;12883;52.662;5.196;2022-07-10T03:50:04;307.60;;;304.70;;
24787;SDS011;12883;52.662;5.196;2022-07-10T03:52:30;310.70;;;307.85;;
24787;SDS011;12883;52.662;5.196;2022-07-10T03:54:56;315.88;;;312.85;;
24787;SDS011;12883;52.662;5.196;2022-07-10T03:57:21;280.15;;;277.55;;
24787;SDS011;12883;52.662;5.196;2022-07-10T04:00:06;287.77;;;285.23;;
24787;SDS011;12883;52.662;5.196;2022-07-10T04:02:32;376.73;;;373.20;;
24787;SDS011;12883;52.662;5.196;2022-07-10T04:04:57;331.65;;;328.80;;
24787;SDS011;12883;52.662;5.196;2022-07-10T04:07:23;361.50;;;358.27;;
24787;SDS011;12883;52.662;5.196;2022-07-10T04:09:49;307.38;;;304.65;;
24787;SDS011;12883;52.662;5.196;2022-07-10T04:12:14;299.80;;;297.10;;
24787;SDS011;12883;52.662;5.196;2022-07-10T04:14:39;299.23;;;296.60;;
24787;SDS011;12883;52.662;5.196;2022-07-10T04:17:05;339.60;;;336.60;;
24787;SDS011;12883;52.662;5.196;2022-07-10T04:19:30;303.02;;;300.48;;
24787;SDS011;12883;52.662;5.196;2022-07-10T04:21:56;351.45;;;348.35;;
24787;SDS011;12883;52.662;5.196;2022-07-10T04:24:21;282.27;;;279.90;;
24787;SDS011;12883;52.662;5.196;2022-07-10T04:26:46;339.35;;;336.40;;
24787;SDS011;12883;52.662;5.196;2022-07-10T04:29:12;296.08;;;293.55;;
24787;SDS011;12883;52.662;5.196;2022-07-10T04:31:37;296.95;;;294.45;;
24787;SDS011;12883;52.662;5.196;2022-07-10T04:34:03;323.65;;;320.70;;
24787;SDS011;12883;52.662;5.196;2022-07-10T04:36:28;307.77;;;305.02;;
24787;SDS011;12883;52.662;5.196;2022-07-10T04:38:55;195.23;;;193.63;;
24787;SDS011;12883;52.662;5.196;2022-07-10T04:41:21;200.07;;;198.48;;
24787;SDS011;12883;52.662;5.196;2022-07-10T04:43:46;218.80;;;216.95;;
24787;SDS011;12883;52.662;5.196;2022-07-10T04:46:11;226.35;;;224.32;;
24787;SDS011;12883;52.662;5.196;2022-07-10T04:48:37;239.70;;;237.80;;
24787;SDS011;12883;52.662;5.196;2022-07-10T04:51:02;220.82;;;219.02;;
24787;SDS011;12883;52.662;5.196;2022-07-10T04:53:28;217.57;;;215.77;;
24787;SDS011;12883;52.662;5.196;2022-07-10T04:55:53;220.13;;;218.27;;
24787;SDS011;12883;52.662;5.196;2022-07-10T04:58:18;198.50;;;196.85;;
24787;SDS011;12883;52.662;5.196;2022-07-10T05:00:44;196.63;;;194.95;;
24787;SDS011;12883;52.662;5.196;2022-07-10T05:03:09;197.98;;;196.23;;
24787;SDS011;12883;52.662;5.196;2022-07-10T05:05:34;226.10;;;224.18;;
24787;SDS011;12883;52.662;5.196;2022-07-10T05:08:00;266.75;;;264.45;;
24787;SDS011;12883;52.662;5.196;2022-07-10T05:10:26;262.42;;;260.23;;
24787;SDS011;12883;52.662;5.196;2022-07-10T05:12:52;251.23;;;249.13;;
24787;SDS011;12883;52.662;5.196;2022-07-10T05:15:17;189.05;;;187.50;;
24787;SDS011;12883;52.662;5.196;2022-07-10T05:17:42;159.25;;;157.82;;
24787;SDS011;12883;52.662;5.196;2022-07-10T05:20:08;231.02;;;229.23;;
24787;SDS011;12883;52.662;5.196;2022-07-10T05:22:34;237.85;;;235.90;;
24787;SDS011;12883;52.662;5.196;2022-07-10T05:25:00;163.05;;;161.68;;
24787;SDS011;12883;52.662;5.196;2022-07-10T05:27:25;167.10;;;165.70;;
24787;SDS011;12883;52.662;5.196;2022-07-10T05:29:51;166.05;;;164.60;;
24787;SDS011;12883;52.662;5.196;2022-07-10T05:32:17;156.40;;;155.07;;
24787;SDS011;12883;52.662;5.196;2022-07-10T05:34:42;120.22;;;119.25;;
24787;SDS011;12883;52.662;5.196;2022-07-10T05:37:08;117.22;;;116.22;;
24787;SDS011;12883;52.662;5.196;2022-07-10T05:39:33;148.68;;;147.48;;
24787;SDS011;12883;52.662;5.196;2022-07-10T05:41:58;133.68;;;132.68;;
24787;SDS011;12883;52.662;5.196;2022-07-10T05:44:24;136.75;;;135.63;;
24787;SDS011;12883;52.662;5.196;2022-07-10T05:46:49;132.65;;;131.57;;
24787;SDS011;12883;52.662;5.196;2022-07-10T05:49:15;131.75;;;130.63;;
24787;SDS011;12883;52.662;5.196;2022-07-10T05:51:40;134.07;;;133.05;;
24787;SDS011;12883;52.662;5.196;2022-07-10T05:54:06;129.75;;;128.63;;
24787;SDS011;12883;52.662;5.196;2022-07-10T05:56:31;123.70;;;122.65;;
24787;SDS011;12883;52.662;5.196;2022-07-10T05:58:56;121.80;;;120.82;;
24787;SDS011;12883;52.662;5.196;2022-07-10T06:01:22;128.27;;;127.22;;
24787;SDS011;12883;52.662;5.196;2022-07-10T06:03:48;109.97;;;109.07;;
24787;SDS011;12883;52.662;5.196;2022-07-10T06:06:14;127.20;;;126.10;;
24787;SDS011;12883;52.662;5.196;2022-07-10T06:08:40;108.05;;;107.15;;
24787;SDS011;12883;52.662;5.196;2022-07-10T06:11:06;129.00;;;127.97;;
24787;SDS011;12883;52.662;5.196;2022-07-10T06:13:31;142.48;;;141.30;;
24787;SDS011;12883;52.662;5.196;2022-07-10T06:15:57;132.50;;;131.32;;
24787;SDS011;12883;52.662;5.196;2022-07-10T06:18:22;121.60;;;120.60;;
24787;SDS011;12883;52.662;5.196;2022-07-10T06:20:47;123.75;;;122.80;;
24787;SDS011;12883;52.662;5.196;2022-07-10T06:23:13;126.05;;;125.00;;
24787;SDS011;12883;52.662;5.196;2022-07-10T06:25:38;130.15;;;129.15;;
24787;SDS011;12883;52.662;5.196;2022-07-10T06:28:03;149.10;;;147.93;;
24787;SDS011;12883;52.662;5.196;2022-07-10T06:30:29;119.45;;;118.53;;
24787;SDS011;12883;52.662;5.196;2022-07-10T06:32:54;138.27;;;137.07;;
24787;SDS011;12883;52.662;5.196;2022-07-10T06:35:20;99.90;;;99.10;;
24787;SDS011;12883;52.662;5.196;2022-07-10T06:37:45;82.63;;;81.97;;
24787;SDS011;12883;52.662;5.196;2022-07-10T06:40:14;125.35;;;124.32;;
24787;SDS011;12883;52.662;5.196;2022-07-10T06:42:42;117.57;;;116.65;;
24787;SDS011;12883;52.662;5.196;2022-07-10T06:45:07;118.45;;;117.53;;
24787;SDS011;12883;52.662;5.196;2022-07-10T06:47:33;99.75;;;98.97;;
24787;SDS011;12883;52.662;5.196;2022-07-10T06:50:17;104.65;;;103.85;;
24787;SDS011;12883;52.662;5.196;2022-07-10T06:52:42;115.80;;;114.90;;
24787;SDS011;12883;52.662;5.196;2022-07-10T06:55:08;117.07;;;116.18;;
24787;SDS011;12883;52.662;5.196;2022-07-10T06:57:34;102.85;;;102.05;;
24787;SDS011;12883;52.662;5.196;2022-07-10T07:00:00;90.97;;;90.28;;
24787;SDS011;12883;52.662;5.196;2022-07-10T07:02:26;92.53;;;91.82;;
24787;SDS011;12883;52.662;5.196;2022-07-10T07:04:51;111.13;;;110.25;;
24787;SDS011;12883;52.662;5.196;2022-07-10T07:07:16;107.03;;;106.13;;
24787;SDS011;12883;52.662;5.196;2022-07-10T07:09:42;101.80;;;100.93;;
24787;SDS011;12883;52.662;5.196;2022-07-10T07:12:08;101.47;;;100.57;;
24787;SDS011;12883;52.662;5.196;2022-07-10T07:14:34;89.05;;;88.35;;
24787;SDS011;12883;52.662;5.196;2022-07-10T07:17:00;96.05;;;95.25;;
24787;SDS011;12883;52.662;5.196;2022-07-10T07:19:31;103.45;;;102.60;;
24787;SDS011;12883;52.662;5.196;2022-07-10T07:21:57;73.60;;;73.05;;
24787;SDS011;12883;52.662;5.196;2022-07-10T07:24:42;83.05;;;82.35;;
24787;SDS011;12883;52.662;5.196;2022-07-10T07:27:08;90.40;;;89.70;;
24787;SDS011;12883;52.662;5.196;2022-07-10T07:29:35;79.30;;;78.68;;
24787;SDS011;12883;52.662;5.196;2022-07-10T07:32:00;78.90;;;78.32;;
24787;SDS011;12883;52.662;5.196;2022-07-10T07:34:25;94.20;;;93.50;;
24787;SDS011;12883;52.662;5.196;2022-07-10T07:36:51;90.13;;;89.40;;
24787;SDS011;12883;52.662;5.196;2022-07-10T07:39:16;123.90;;;122.85;;
24787;SDS011;12883;52.662;5.196;2022-07-10T07:41:42;56.42;;;56.03;;
24787;SDS011;12883;52.662;5.196;2022-07-10T07:44:07;106.05;;;105.15;;
24787;SDS011;12883;52.662;5.196;2022-07-10T07:46:32;72.80;;;72.20;;
24787;SDS011;12883;52.662;5.196;2022-07-10T07:48:58;89.55;;;88.85;;
24787;SDS011;12883;52.662;5.196;2022-07-10T07:51:25;76.43;;;75.85;;
24787;SDS011;12883;52.662;5.196;2022-07-10T07:53:50;88.00;;;87.30;;
24787;SDS011;12883;52.662;5.196;2022-07-10T07:56:16;105.45;;;104.55;;
24787;SDS011;12883;52.662;5.196;2022-07-10T07:58:41;97.82;;;96.95;;
24787;SDS011;12883;52.662;5.196;2022-07-10T08:01:06;89.20;;;88.50;;
24787;SDS011;12883;52.662;5.196;2022-07-10T08:03:32;68.35;;;67.85;;
24787;SDS011;12883;52.662;5.196;2022-07-10T08:05:57;97.93;;;97.03;;
24787;SDS011;12883;52.662;5.196;2022-07-10T08:08:23;82.57;;;81.95;;
24787;SDS011;12883;52.662;5.196;2022-07-10T08:10:48;87.45;;;86.72;;
24787;SDS011;12883;52.662;5.196;2022-07-10T08:13:13;80.65;;;79.93;;
24787;SDS011;12883;52.662;5.196;2022-07-10T08:15:39;80.63;;;79.93;;
24787;SDS011;12883;52.662;5.196;2022-07-10T08:18:04;79.93;;;79.40;;
24787;SDS011;12883;52.662;5.196;2022-07-10T08:20:32;121.93;;;121.00;;
24787;SDS011;12883;52.662;5.196;2022-07-10T08:22:58;73.03;;;72.47;;
24787;SDS011;12883;52.662;5.196;2022-07-10T08:25:23;75.93;;;75.32;;
24787;SDS011;12883;52.662;5.196;2022-07-10T08:27:49;75.43;;;74.82;;
24787;SDS011;12883;52.662;5.196;2022-07-10T08:30:15;90.00;;;89.25;;
24787;SDS011;12883;52.662;5.196;2022-07-10T08:32:41;90.22;;;89.47;;
24787;SDS011;12883;52.662;5.196;2022-07-10T08:35:07;71.78;;;71.20;;
24787;SDS011;12883;52.662;5.196;2022-07-10T08:37:37;79.57;;;78.93;;
24787;SDS011;12883;52.662;5.196;2022-07-10T08:40:09;72.65;;;72.07;;
24787;SDS011;12883;52.662;5.196;2022-07-10T08:42:37;83.68;;;83.00;;
24787;SDS011;12883;52.662;5.196;2022-07-10T08:45:03;83.07;;;82.38;;
24787;SDS011;12883;52.662;5.196;2022-07-10T08:47:29;93.50;;;92.82;;
24787;SDS011;12883;52.662;5.196;2022-07-10T08:49:56;61.70;;;61.28;;
24787;SDS011;12883;52.662;5.196;2022-07-10T08:54:52;90.47;;;89.75;;
24787;SDS011;12883;52.662;5.196;2022-07-10T08:57:18;65.72;;;65.22;;
24787;SDS011;12883;52.662;5.196;2022-07-10T08:59:44;81.82;;;81.15;;
24787;SDS011;12883;52.662;5.196;2022-07-10T09:02:10;86.25;;;85.53;;
24787;SDS011;12883;52.662;5.196;2022-07-10T09:04:35;86.63;;;85.90;;
24787;SDS011;12883;52.662;5.196;2022-07-10T09:07:00;71.22;;;70.72;;
24787;SDS011;12883;52.662;5.196;2022-07-10T09:09:26;76.18;;;75.55;;
24787;SDS011;12883;52.662;5.196;2022-07-10T09:11:58;88.40;;;87.70;;
24787;SDS011;12883;52.662;5.196;2022-07-10T09:14:25;67.18;;;66.63;;
24787;SDS011;12883;52.662;5.196;2022-07-10T09:16:53;95.07;;;94.30;;
24787;SDS011;12883;52.662;5.196;2022-07-10T09:19:20;63.42;;;62.92;;
24787;SDS011;12883;52.662;5.196;2022-07-10T09:21:53;69.28;;;68.75;;
24787;SDS011;12883;52.662;5.196;2022-07-10T09:24:22;69.43;;;68.90;;
24787;SDS011;12883;52.662;5.196;2022-07-10T09:29:20;73.55;;;72.95;;
24787;SDS011;12883;52.662;5.196;2022-07-10T09:31:52;66.90;;;66.40;;
24787;SDS011;12883;52.662;5.196;2022-07-10T09:34:36;77.68;;;77.10;;
24787;SDS011;12883;52.662;5.196;2022-07-10T09:39:54;56.35;;;55.95;;
24787;SDS011;12883;52.662;5.196;2022-07-10T09:42:27;94.88;;;94.10;;
24787;SDS011;12883;52.662;5.196;2022-07-10T09:47:53;78.18;;;77.50;;
24787;SDS011;12883;52.662;5.196;2022-07-10T09:52:52;78.38;;;77.72;;
24787;SDS011;12883;52.662;5.196;2022-07-10T09:55:22;78.85;;;78.25;;
24787;SDS011;12883;52.662;5.196;2022-07-10T09:57:52;62.67;;;62.17;;
24787;SDS011;12883;52.662;5.196;2022-07-10T10:00:22;72.32;;;71.78;;
24787;SDS011;12883;52.662;5.196;2022-07-10T10:02:50;63.25;;;62.75;;
24787;SDS011;12883;52.662;5.196;2022-07-10T10:05:20;87.57;;;86.82;;
24787;SDS011;12883;52.662;5.196;2022-07-10T10:07:51;67.05;;;66.55;;
24787;SDS011;12883;52.662;5.196;2022-07-10T10:10:16;58.58;;;58.17;;
24787;SDS011;12883;52.662;5.196;2022-07-10T10:12:44;82.95;;;82.25;;
24787;SDS011;12883;52.662;5.196;2022-07-10T10:15:15;86.30;;;85.60;;
24787;SDS011;12883;52.662;5.196;2022-07-10T10:17:41;61.97;;;61.53;;
24787;SDS011;12883;52.662;5.196;2022-07-10T10:20:09;64.32;;;63.83;;
24787;SDS011;12883;52.662;5.196;2022-07-10T10:22:55;68.63;;;68.13;;
24787;SDS011;12883;52.662;5.196;2022-07-10T10:25:25;60.22;;;59.78;;
24787;SDS011;12883;52.662;5.196;2022-07-10T10:27:51;80.18;;;79.57;;
24787;SDS011;12883;52.662;5.196;2022-07-10T10:30:17;71.40;;;70.80;;
24787;SDS011;12883;52.662;5.196;2022-07-10T10:32:43;53.17;;;52.78;;
24787;SDS011;12883;52.662;5.196;2022-07-10T10:35:08;51.20;;;50.80;;
24787;SDS011;12883;52.662;5.196;2022-07-10T10:40:09;69.75;;;69.20;;
24787;SDS011;12883;52.662;5.196;2022-07-10T10:42:54;42.50;;;42.20;;
24787;SDS011;12883;52.662;5.196;2022-07-10T10:48:07;58.75;;;58.35;;
24787;SDS011;12883;52.662;5.196;2022-07-10T10:50:38;76.35;;;75.78;;
24787;SDS011;12883;52.662;5.196;2022-07-10T10:53:05;70.07;;;69.53;;
24787;SDS011;12883;52.662;5.196;2022-07-10T10:55:38;59.67;;;59.28;;
24787;SDS011;12883;52.662;5.196;2022-07-10T10:58:16;71.55;;;70.95;;
24787;SDS011;12883;52.662;5.196;2022-07-10T11:00:49;55.60;;;55.20;;
24787;SDS011;12883;52.662;5.196;2022-07-10T11:03:18;53.58;;;53.20;;
24787;SDS011;12883;52.662;5.196;2022-07-10T11:05:46;48.72;;;48.40;;
24787;SDS011;12883;52.662;5.196;2022-07-10T11:08:13;56.55;;;56.13;;
24787;SDS011;12883;52.662;5.196;2022-07-10T11:10:40;52.20;;;51.80;;
24787;SDS011;12883;52.662;5.196;2022-07-10T11:15:40;68.18;;;67.65;;
24787;SDS011;12883;52.662;5.196;2022-07-10T11:18:09;54.95;;;54.55;;
24787;SDS011;12883;52.662;5.196;2022-07-10T11:20:37;48.65;;;48.25;;
24787;SDS011;12883;52.662;5.196;2022-07-10T11:26:03;46.63;;;46.33;;
24787;SDS011;12883;52.662;5.196;2022-07-10T11:28:53;42.17;;;41.88;;
24787;SDS011;12883;52.662;5.196;2022-07-10T11:31:22;50.92;;;50.58;;
24787;SDS011;12883;52.662;5.196;2022-07-10T11:33:49;57.58;;;57.17;;
24787;SDS011;12883;52.662;5.196;2022-07-10T11:38:43;71.57;;;71.05;;
24787;SDS011;12883;52.662;5.196;2022-07-10T11:41:17;60.10;;;59.67;;
24787;SDS011;12883;52.662;5.196;2022-07-10T11:43:51;48.10;;;47.72;;
24787;SDS011;12883;52.662;5.196;2022-07-10T11:46:18;64.28;;;63.78;;
24787;SDS011;12883;52.662;5.196;2022-07-10T11:48:46;45.45;;;45.05;;
24787;SDS011;12883;52.662;5.196;2022-07-10T11:51:26;51.60;;;51.20;;
24787;SDS011;12883;52.662;5.196;2022-07-10T11:53:56;61.65;;;61.22;;
24787;SDS011;12883;52.662;5.196;2022-07-10T11:56:25;71.45;;;70.85;;
24787;SDS011;12883;52.662;5.196;2022-07-10T12:01:28;58.38;;;57.95;;
24787;SDS011;12883;52.662;5.196;2022-07-10T12:03:55;57.85;;;57.38;;
24787;SDS011;12883;52.662;5.196;2022-07-10T12:06:25;49.95;;;49.55;;
24787;SDS011;12883;52.662;5.196;2022-07-10T12:08:51;51.40;;;51.03;;
24787;SDS011;12883;52.662;5.196;2022-07-10T12:11:18;62.42;;;62.03;;
24787;SDS011;12883;52.662;5.196;2022-07-10T12:13:45;51.17;;;50.72;;
24787;SDS011;12883;52.662;5.196;2022-07-10T12:16:12;55.65;;;55.15;;
24787;SDS011;12883;52.662;5.196;2022-07-10T12:18:39;62.45;;;61.97;;
24787;SDS011;12883;52.662;5.196;2022-07-10T12:21:06;56.00;;;55.63;;
24787;SDS011;12883;52.662;5.196;2022-07-10T12:23:34;50.13;;;49.72;;
24787;SDS011;12883;52.662;5.196;2022-07-10T12:26:03;69.05;;;68.50;;
24787;SDS011;12883;52.662;5.196;2022-07-10T12:28:29;62.88;;;62.38;;
24787;SDS011;12883;52.662;5.196;2022-07-10T12:30:55;63.72;;;63.25;;
24787;SDS011;12883;52.662;5.196;2022-07-10T12:33:21;59.47;;;59.05;;
24787;SDS011;12883;52.662;5.196;2022-07-10T12:35:51;63.75;;;63.25;;
24787;SDS011;12883;52.662;5.196;2022-07-10T12:38:19;59.95;;;59.47;;
24787;SDS011;12883;52.662;5.196;2022-07-10T12:40:46;55.63;;;55.20;;
24787;SDS011;12883;52.662;5.196;2022-07-10T12:43:11;76.60;;;75.97;;
24787;SDS011;12883;52.662;5.196;2022-07-10T12:45:37;61.00;;;60.53;;
24787;SDS011;12883;52.662;5.196;2022-07-10T12:48:04;69.05;;;68.50;;
24787;SDS011;12883;52.662;5.196;2022-07-10T12:50:33;60.25;;;59.75;;
24787;SDS011;12883;52.662;5.196;2022-07-10T12:53:08;53.28;;;52.88;;
24787;SDS011;12883;52.662;5.196;2022-07-10T12:55:36;68.35;;;67.78;;
24787;SDS011;12883;52.662;5.196;2022-07-10T12:58:12;80.75;;;80.05;;
24787;SDS011;12883;52.662;5.196;2022-07-10T13:00:45;68.57;;;68.03;;
24787;SDS011;12883;52.662;5.196;2022-07-10T13:03:17;53.50;;;53.10;;
24787;SDS011;12883;52.662;5.196;2022-07-10T13:05:44;60.63;;;60.22;;
24787;SDS011;12883;52.662;5.196;2022-07-10T13:08:11;64.60;;;64.10;;
24787;SDS011;12883;52.662;5.196;2022-07-10T13:10:41;55.42;;;55.03;;
24787;SDS011;12883;52.662;5.196;2022-07-10T13:13:16;64.93;;;64.40;;
24787;SDS011;12883;52.662;5.196;2022-07-10T13:15:45;70.72;;;70.22;;
24787;SDS011;12883;52.662;5.196;2022-07-10T13:18:16;71.20;;;70.65;;
24787;SDS011;12883;52.662;5.196;2022-07-10T13:20:44;76.10;;;75.50;;
24787;SDS011;12883;52.662;5.196;2022-07-10T13:23:10;54.50;;;54.10;;
24787;SDS011;12883;52.662;5.196;2022-07-10T13:25:38;52.25;;;51.85;;
24787;SDS011;12883;52.662;5.196;2022-07-10T13:28:05;52.42;;;52.03;;
24787;SDS011;12883;52.662;5.196;2022-07-10T13:30:31;76.85;;;76.25;;
24787;SDS011;12883;52.662;5.196;2022-07-10T13:32:57;68.28;;;67.70;;
24787;SDS011;12883;52.662;5.196;2022-07-10T13:35:23;54.85;;;54.45;;
24787;SDS011;12883;52.662;5.196;2022-07-10T13:37:48;85.55;;;84.80;;
24787;SDS011;12883;52.662;5.196;2022-07-10T13:40:14;64.60;;;64.07;;
24787;SDS011;12883;52.662;5.196;2022-07-10T13:42:39;76.40;;;75.80;;
24787;SDS011;12883;52.662;5.196;2022-07-10T13:45:05;59.28;;;58.83;;
24787;SDS011;12883;52.662;5.196;2022-07-10T13:47:31;68.35;;;67.80;;
24787;SDS011;12883;52.662;5.196;2022-07-10T13:49:56;52.15;;;51.70;;
24787;SDS011;12883;52.662;5.196;2022-07-10T13:52:21;71.45;;;70.85;;
24787;SDS011;12883;52.662;5.196;2022-07-10T13:54:47;80.95;;;80.32;;
24787;SDS011;12883;52.662;5.196;2022-07-10T13:57:12;79.05;;;78.38;;
24787;SDS011;12883;52.662;5.196;2022-07-10T13:59:38;57.22;;;56.80;;
24787;SDS011;12883;52.662;5.196;2022-07-10T14:02:03;71.70;;;71.13;;
24787;SDS011;12883;52.662;5.196;2022-07-10T14:04:29;57.78;;;57.35;;
24787;SDS011;12883;52.662;5.196;2022-07-10T14:06:55;83.32;;;82.63;;
24787;SDS011;12883;52.662;5.196;2022-07-10T14:09:20;85.22;;;84.43;;
24787;SDS011;12883;52.662;5.196;2022-07-10T14:11:48;66.55;;;66.05;;
24787;SDS011;12883;52.662;5.196;2022-07-10T14:14:14;80.30;;;79.68;;
24787;SDS011;12883;52.662;5.196;2022-07-10T14:16:39;56.25;;;55.75;;
24787;SDS011;12883;52.662;5.196;2022-07-10T14:19:05;69.03;;;68.45;;
24787;SDS011;12883;52.662;5.196;2022-07-10T14:21:30;53.65;;;53.28;;
24787;SDS011;12883;52.662;5.196;2022-07-10T14:23:55;72.15;;;71.60;;
24787;SDS011;12883;52.662;5.196;2022-07-10T14:26:24;76.20;;;75.60;;
24787;SDS011;12883;52.662;5.196;2022-07-10T14:28:49;70.72;;;70.15;;
24787;SDS011;12883;52.662;5.196;2022-07-10T14:31:16;60.65;;;60.15;;
24787;SDS011;12883;52.662;5.196;2022-07-10T14:33:42;71.20;;;70.70;;
24787;SDS011;12883;52.662;5.196;2022-07-10T14:36:08;84.93;;;84.30;;
24787;SDS011;12883;52.662;5.196;2022-07-10T14:38:34;76.45;;;75.88;;